createdAt,value
2022-11-18T00:00:08.903Z,16.80
2022-11-18T00:02:57.233Z,13.20
2022-11-18T00:05:25.485Z,17.50
2022-11-18T00:07:53.804Z,15.20
2022-11-18T00:10:22.093Z,17.20
2022-11-18T00:13:09.311Z,15.70
2022-11-18T00:15:37.674Z,15.60
2022-11-18T00:18:06.081Z,18.10
2022-11-18T00:20:35.432Z,17.80
2022-11-18T00:23:03.699Z,17.50
2022-11-18T00:25:34.700Z,16.90
2022-11-18T00:28:03.016Z,19.70
2022-11-18T00:30:31.368Z,15.20
2022-11-18T00:32:59.673Z,15.70
2022-11-18T00:35:28.032Z,11.90
2022-11-18T00:37:56.353Z,13.00
2022-11-18T00:40:26.120Z,12.50
2022-11-18T00:42:54.503Z,16.50
2022-11-18T00:45:23.954Z,16.10
2022-11-18T00:47:52.377Z,17.30
2022-11-18T00:50:20.628Z,14.60
2022-11-18T00:52:49.023Z,15.90
2022-11-18T00:55:17.354Z,17.00
2022-11-18T00:57:45.690Z,16.50
2022-11-18T01:00:14.321Z,16.10
2022-11-18T01:02:42.654Z,17.00
2022-11-18T01:05:10.930Z,16.50
2022-11-18T01:07:39.445Z,17.70
2022-11-18T01:10:08.122Z,17.50
2022-11-18T01:12:55.951Z,17.30
2022-11-18T01:15:24.373Z,16.30
2022-11-18T01:17:52.692Z,16.90
2022-11-18T01:20:20.988Z,16.60
2022-11-18T01:22:49.309Z,17.90
2022-11-18T01:25:17.617Z,16.20
2022-11-18T01:27:45.893Z,18.10
2022-11-18T01:30:14.970Z,16.90
2022-11-18T01:32:44.271Z,18.60
2022-11-18T01:35:12.678Z,18.30
2022-11-18T01:37:41.105Z,17.40
2022-11-18T01:40:13.194Z,15.70
2022-11-18T01:42:41.537Z,16.00
2022-11-18T01:45:32.695Z,16.20
2022-11-18T01:48:05.089Z,13.40
2022-11-18T01:50:37.251Z,18.10
2022-11-18T01:53:10.758Z,20.70
2022-11-18T01:55:44.244Z,20.70
2022-11-18T01:58:31.965Z,18.00
2022-11-18T02:01:00.879Z,19.50
2022-11-18T02:03:29.769Z,18.20
2022-11-18T02:06:01.728Z,18.30
2022-11-18T02:08:31.153Z,16.80
2022-11-18T02:10:59.459Z,17.20
2022-11-18T02:13:27.837Z,15.80
2022-11-18T02:16:03.323Z,15.30
2022-11-18T02:19:00.716Z,15.60
2022-11-18T02:21:40.602Z,14.20
2022-11-18T02:24:46.675Z,12.20
2022-11-18T02:27:40.874Z,14.50
2022-11-18T02:30:12.252Z,14.50
2022-11-18T02:33:09.085Z,15.00
2022-11-18T02:35:45.284Z,14.90
2022-11-18T02:38:31.581Z,16.20
2022-11-18T02:41:29.294Z,16.70
2022-11-18T02:44:04.639Z,15.00
2022-11-18T02:46:36.335Z,19.00
2022-11-18T02:49:11.229Z,19.40
2022-11-18T02:51:41.042Z,18.80
2022-11-18T02:54:12.531Z,18.20
2022-11-18T02:56:42.678Z,18.40
2022-11-18T02:59:10.988Z,16.90
2022-11-18T03:01:40.015Z,20.10
2022-11-18T03:04:08.355Z,17.30
2022-11-18T03:07:06.128Z,19.10
2022-11-18T03:09:39.098Z,18.70
2022-11-18T03:12:22.571Z,18.40
2022-11-18T03:14:57.779Z,21.00
2022-11-18T03:17:38.089Z,20.00
2022-11-18T03:20:21.720Z,18.50
2022-11-18T03:23:12.552Z,20.20
2022-11-18T03:26:25.646Z,18.90
2022-11-18T03:28:58.884Z,15.10
2022-11-18T03:31:34.255Z,12.40
2022-11-18T03:34:09.322Z,18.00
2022-11-18T03:37:10.473Z,18.90
2022-11-18T03:39:44.705Z,15.20
2022-11-18T03:42:35.447Z,18.80
2022-11-18T03:45:15.030Z,17.60
2022-11-18T03:47:50.833Z,18.60
2022-11-18T03:50:23.940Z,16.40
2022-11-18T03:52:55.377Z,12.50
2022-11-18T03:55:45.363Z,15.90
2022-11-18T03:58:24.193Z,15.60
2022-11-18T04:00:59.693Z,16.80
2022-11-18T04:03:28.345Z,17.50
2022-11-18T04:06:16.561Z,17.40
2022-11-18T04:08:50.987Z,16.70
2022-11-18T04:11:52.603Z,18.60
2022-11-18T04:14:21.033Z,17.30
2022-11-18T04:16:53.598Z,20.10
2022-11-18T04:19:22.435Z,18.70
2022-11-18T04:21:51.642Z,18.30
2022-11-18T04:24:20.002Z,17.90
2022-11-18T04:26:48.372Z,19.70
2022-11-18T04:29:16.945Z,18.10
2022-11-18T04:31:45.651Z,19.70
2022-11-18T04:34:14.312Z,19.60
2022-11-18T04:36:42.646Z,18.50
2022-11-18T04:39:11.029Z,18.10
2022-11-18T04:41:57.785Z,19.80
2022-11-18T04:44:32.045Z,17.60
2022-11-18T04:47:02.991Z,18.00
2022-11-18T04:49:32.004Z,18.20
2022-11-18T04:52:01.102Z,19.00
2022-11-18T04:54:29.759Z,17.30
2022-11-18T04:56:58.211Z,16.70
2022-11-18T04:59:29.531Z,16.10
2022-11-18T05:02:01.260Z,15.50
2022-11-18T05:04:32.843Z,11.00
2022-11-18T05:07:04.752Z,13.70
2022-11-18T05:09:33.196Z,13.30
2022-11-18T05:12:21.124Z,14.50
2022-11-18T05:14:50.864Z,13.70
2022-11-18T05:17:19.664Z,14.40
2022-11-18T05:19:48.016Z,13.00
2022-11-18T05:22:16.904Z,16.50
2022-11-18T05:24:45.204Z,20.40
2022-11-18T05:27:14.258Z,16.50
2022-11-18T05:29:42.568Z,17.30
2022-11-18T05:32:10.978Z,20.90
2022-11-18T05:34:41.170Z,18.20
2022-11-18T05:37:09.864Z,18.20
2022-11-18T05:39:38.272Z,18.90
2022-11-18T05:42:26.161Z,19.90
2022-11-18T05:44:58.199Z,18.90
2022-11-18T05:47:28.028Z,21.10
2022-11-18T05:49:56.333Z,20.40
2022-11-18T05:52:24.673Z,19.40
2022-11-18T05:54:53.100Z,19.90
2022-11-18T05:57:21.458Z,20.50
2022-11-18T05:59:49.972Z,20.00
2022-11-18T06:02:24.204Z,20.40
2022-11-18T06:05:02.136Z,21.80
2022-11-18T06:07:39.100Z,19.10
2022-11-18T06:10:08.248Z,16.30
2022-11-18T06:12:42.140Z,19.80
2022-11-18T06:17:50.061Z,17.70
2022-11-18T06:20:21.403Z,17.50
2022-11-18T06:22:53.851Z,19.50
2022-11-18T06:25:23.108Z,17.80
2022-11-18T06:27:56.568Z,17.00
2022-11-18T06:30:24.921Z,17.70
2022-11-18T06:32:53.495Z,19.30
2022-11-18T06:35:21.827Z,15.60
2022-11-18T06:37:50.128Z,16.70
2022-11-18T06:40:21.874Z,14.30
2022-11-18T06:43:09.247Z,14.70
2022-11-18T06:45:37.516Z,13.70
2022-11-18T06:48:06.274Z,16.00
2022-11-18T06:50:34.971Z,15.10
2022-11-18T06:53:03.271Z,14.00
2022-11-18T06:55:31.596Z,13.40
2022-11-18T06:57:59.897Z,13.60
2022-11-18T07:00:28.182Z,14.00
2022-11-18T07:02:56.484Z,11.40
2022-11-18T07:05:24.697Z,11.40
2022-11-18T07:07:53.137Z,10.10
2022-11-18T07:10:21.531Z,10.40
2022-11-18T07:12:49.862Z,9.20
2022-11-18T07:15:18.138Z,9.50
2022-11-18T07:17:46.469Z,8.30
2022-11-18T07:20:15.006Z,9.00
2022-11-18T07:22:43.288Z,8.70
2022-11-18T07:25:11.624Z,8.40
2022-11-18T07:27:39.890Z,8.60
2022-11-18T07:30:08.518Z,8.00
2022-11-18T07:32:36.897Z,9.50
2022-11-18T07:35:05.648Z,7.90
2022-11-18T07:37:33.985Z,7.20
2022-11-18T07:40:02.347Z,6.10
2022-11-18T07:42:42.916Z,6.30
2022-11-18T07:45:12.681Z,5.70
2022-11-18T07:47:41.065Z,4.70
2022-11-18T07:50:09.705Z,4.00
2022-11-18T07:52:38.040Z,4.60
2022-11-18T07:55:06.719Z,3.90
2022-11-18T07:57:35.159Z,4.00
2022-11-18T08:00:04.855Z,3.70
2022-11-18T08:02:33.275Z,3.30
2022-11-18T08:05:01.740Z,2.80
2022-11-18T08:07:30.296Z,3.10
2022-11-18T08:09:58.660Z,3.10
2022-11-18T08:12:27.032Z,3.50
2022-11-18T08:14:55.359Z,3.20
2022-11-18T08:17:23.725Z,3.40
2022-11-18T08:19:52.085Z,2.60
2022-11-18T08:22:21.099Z,3.20
2022-11-18T08:24:49.387Z,2.50
2022-11-18T08:27:17.677Z,3.30
2022-11-18T08:29:45.945Z,2.80
2022-11-18T08:32:14.263Z,2.70
2022-11-18T08:34:42.557Z,3.00
2022-11-18T08:37:10.852Z,3.00
2022-11-18T08:39:39.921Z,3.30
2022-11-18T08:42:10.354Z,2.80
2022-11-18T08:44:38.756Z,3.00
2022-11-18T08:47:07.064Z,3.50
2022-11-18T08:49:35.415Z,3.30
2022-11-18T08:52:03.881Z,2.50
2022-11-18T08:54:32.174Z,2.70
2022-11-18T08:57:00.766Z,3.30
2022-11-18T08:59:29.220Z,2.50
2022-11-18T09:01:57.573Z,2.90
2022-11-18T09:04:26.025Z,2.20
2022-11-18T09:06:54.607Z,3.20
2022-11-18T09:09:23.588Z,3.20
2022-11-18T09:11:52.282Z,2.80
2022-11-18T09:17:10.132Z,4.20
2022-11-18T09:19:47.812Z,3.40
2022-11-18T09:22:16.799Z,3.30
2022-11-18T09:24:45.243Z,2.90
2022-11-18T09:27:17.130Z,2.60
2022-11-18T09:29:46.483Z,2.60
2022-11-18T09:32:15.216Z,2.30
2022-11-18T09:34:43.586Z,2.80
2022-11-18T09:37:11.925Z,2.30
2022-11-18T09:39:40.337Z,2.40
2022-11-18T09:42:33.243Z,2.20
2022-11-18T09:45:23.586Z,2.80
2022-11-18T09:48:00.777Z,2.70
2022-11-18T09:53:23.085Z,3.60
2022-11-18T09:58:30.001Z,2.50
2022-11-18T10:00:58.584Z,2.50
2022-11-18T10:03:30.014Z,2.20
2022-11-18T10:05:58.407Z,3.40
2022-11-18T10:08:37.398Z,3.10
2022-11-18T10:11:18.150Z,4.20
2022-11-18T10:14:19.796Z,4.10
2022-11-18T10:16:59.215Z,4.60
2022-11-18T10:19:39.015Z,4.20
2022-11-18T10:22:22.728Z,4.90
2022-11-18T10:24:55.222Z,5.90
2022-11-18T10:27:27.501Z,6.00
2022-11-18T10:30:00.527Z,6.60
2022-11-18T10:32:29.149Z,6.90
2022-11-18T10:34:59.059Z,6.00
2022-11-18T10:40:30.119Z,5.40
2022-11-18T10:42:59.329Z,5.20
2022-11-18T10:45:31.034Z,4.60
2022-11-18T10:48:19.266Z,5.50
2022-11-18T10:50:55.517Z,5.10
2022-11-18T10:53:32.194Z,5.40
2022-11-18T10:56:09.488Z,4.40
2022-11-18T10:58:46.816Z,5.50
2022-11-18T11:01:25.602Z,4.60
2022-11-18T11:04:00.580Z,5.70
2022-11-18T11:06:39.576Z,6.60
2022-11-18T11:09:13.540Z,5.60
2022-11-18T11:14:42.183Z,5.40
2022-11-18T11:17:15.568Z,5.70
2022-11-18T11:20:06.342Z,6.20
2022-11-18T11:22:34.866Z,6.00
2022-11-18T11:25:03.645Z,5.50
2022-11-18T11:28:18.944Z,5.30
2022-11-18T11:31:03.294Z,4.90
2022-11-18T11:33:46.534Z,5.20
2022-11-18T11:36:21.118Z,5.60
2022-11-18T11:39:05.219Z,5.40
2022-11-18T11:42:00.250Z,5.00
2022-11-18T11:44:59.676Z,5.00
2022-11-18T11:48:06.060Z,6.30
2022-11-18T11:51:02.988Z,6.50
2022-11-18T11:53:53.698Z,5.50
2022-11-18T11:56:46.607Z,4.90
2022-11-18T11:59:23.878Z,5.90
2022-11-18T12:01:52.376Z,4.80
2022-11-18T12:04:48.301Z,5.60
2022-11-18T12:07:30.302Z,6.50
2022-11-18T12:10:21.060Z,4.90
2022-11-18T12:13:20.361Z,4.70
2022-11-18T12:16:31.034Z,5.20
2022-11-18T12:19:04.100Z,4.70
2022-11-18T12:21:47.331Z,3.80
2022-11-18T12:24:18.523Z,5.30
2022-11-18T12:26:49.051Z,5.00
2022-11-18T12:29:20.493Z,4.30
2022-11-18T12:32:02.323Z,4.80
2022-11-18T12:34:45.129Z,4.80
2022-11-18T12:37:25.607Z,4.10
2022-11-18T12:39:56.778Z,6.00
2022-11-18T12:43:06.597Z,4.80
2022-11-18T12:45:40.937Z,4.30
2022-11-18T12:48:40.420Z,6.20
2022-11-18T12:51:19.449Z,4.70
2022-11-18T12:53:50.470Z,4.10
2022-11-18T12:56:19.016Z,4.60
2022-11-18T12:58:56.203Z,4.20
2022-11-18T13:01:28.349Z,4.40
2022-11-18T13:04:15.205Z,4.60
2022-11-18T13:06:45.164Z,4.40
2022-11-18T13:09:21.815Z,4.20
2022-11-18T13:12:02.953Z,11.50
2022-11-18T13:15:03.720Z,5.00
2022-11-18T13:17:52.278Z,4.30
2022-11-18T13:20:36.088Z,5.00
2022-11-18T13:23:29.500Z,5.40
2022-11-18T13:26:07.149Z,4.60
2022-11-18T13:29:23.957Z,5.90
2022-11-18T13:32:21.288Z,5.20
2022-11-18T13:34:55.991Z,7.90
2022-11-18T13:37:30.409Z,5.50
2022-11-18T13:39:58.968Z,7.30
2022-11-18T13:42:30.292Z,5.70
2022-11-18T13:45:04.048Z,6.50
2022-11-18T13:47:36.795Z,7.10
2022-11-18T13:50:23.022Z,4.90
2022-11-18T13:52:59.299Z,3.60
2022-11-18T13:55:34.108Z,3.80
2022-11-18T13:58:55.694Z,3.90
2022-11-18T14:01:29.066Z,3.60
2022-11-18T14:03:59.306Z,3.40
2022-11-18T14:06:36.579Z,4.20
2022-11-18T14:09:27.761Z,3.80
2022-11-18T14:14:52.078Z,3.80
2022-11-18T14:17:26.032Z,3.60
2022-11-18T14:22:27.594Z,3.80
2022-11-18T14:24:59.535Z,4.50
2022-11-18T14:27:39.871Z,4.90
2022-11-18T14:30:55.350Z,7.10
2022-11-18T14:33:30.814Z,7.30
2022-11-18T14:36:16.612Z,6.40
2022-11-18T14:39:19.184Z,4.60
2022-11-18T14:41:49.923Z,6.00
2022-11-18T14:44:19.973Z,5.30
2022-11-18T14:46:55.729Z,6.80
2022-11-18T14:49:26.156Z,5.80
2022-11-18T14:51:55.401Z,5.50
2022-11-18T14:54:27.428Z,4.60
2022-11-18T14:57:00.949Z,6.50
2022-11-18T14:59:30.016Z,6.70
2022-11-18T15:01:59.065Z,5.60
2022-11-18T15:04:27.765Z,7.20
2022-11-18T15:06:56.456Z,5.40
2022-11-18T15:09:25.032Z,4.70
2022-11-18T15:11:53.595Z,5.00
2022-11-18T15:14:22.220Z,5.90
2022-11-18T15:16:50.837Z,6.40
2022-11-18T15:19:19.258Z,5.90
2022-11-18T15:21:47.885Z,5.90
2022-11-18T15:24:16.755Z,7.80
2022-11-18T15:26:47.363Z,9.10
2022-11-18T15:29:22.221Z,5.80
2022-11-18T15:31:51.085Z,8.30
2022-11-18T15:34:21.486Z,13.30
2022-11-18T15:36:50.560Z,12.60
2022-11-18T15:39:19.120Z,13.20
2022-11-18T15:42:12.478Z,13.20
2022-11-18T15:47:54.407Z,11.80
2022-11-18T15:50:23.002Z,6.60
2022-11-18T15:52:51.627Z,5.00
2022-11-18T15:55:22.553Z,13.40
2022-11-18T15:57:52.397Z,12.20
2022-11-18T16:00:20.904Z,14.40
2022-11-18T16:02:49.452Z,17.60
2022-11-18T16:05:17.935Z,13.10
2022-11-18T16:07:52.735Z,11.10
2022-11-18T16:10:42.024Z,10.40
2022-11-18T16:13:10.566Z,11.30
2022-11-18T16:15:45.133Z,10.80
2022-11-18T16:18:14.456Z,6.20
2022-11-18T16:20:43.261Z,7.90
2022-11-18T16:23:11.842Z,8.10
2022-11-18T16:25:45.333Z,9.30
2022-11-18T16:28:13.784Z,8.10
2022-11-18T16:31:06.437Z,9.30
2022-11-18T16:33:34.950Z,8.30
2022-11-18T16:36:03.801Z,7.90
2022-11-18T16:38:32.256Z,8.90
2022-11-18T16:44:13.909Z,6.50
2022-11-18T16:46:47.161Z,6.80
2022-11-18T16:49:17.758Z,6.30
2022-11-18T16:51:49.655Z,5.60
2022-11-18T16:54:29.795Z,6.90
2022-11-18T16:56:59.670Z,6.30
2022-11-18T16:59:31.127Z,5.50
2022-11-18T17:02:01.309Z,6.50
2022-11-18T17:04:36.635Z,5.10
2022-11-18T17:07:12.159Z,7.60
2022-11-18T17:09:59.024Z,6.90
2022-11-18T17:12:32.279Z,5.50
2022-11-18T17:15:00.986Z,5.40
2022-11-18T17:17:41.979Z,6.10
2022-11-18T17:20:11.221Z,5.70
2022-11-18T17:22:44.289Z,6.20
2022-11-18T17:25:18.962Z,5.80
2022-11-18T17:27:47.575Z,5.50
2022-11-18T17:30:20.731Z,5.40
2022-11-18T17:32:55.697Z,5.50
2022-11-18T17:35:30.834Z,5.40
2022-11-18T17:38:08.597Z,5.20
2022-11-18T17:40:41.427Z,5.90
2022-11-18T17:43:10.997Z,5.70
2022-11-18T17:45:41.787Z,6.00
2022-11-18T17:48:15.017Z,6.80
2022-11-18T17:50:44.037Z,5.60
2022-11-18T17:53:13.531Z,6.10
2022-11-18T17:55:45.125Z,5.80
2022-11-18T17:58:14.428Z,5.70
2022-11-18T18:00:43.780Z,6.20
2022-11-18T18:03:17.388Z,6.70
2022-11-18T18:05:46.147Z,6.30
2022-11-18T18:08:14.661Z,7.10
2022-11-18T18:10:49.943Z,8.40
2022-11-18T18:13:37.519Z,10.60
2022-11-18T18:16:06.925Z,7.90
2022-11-18T18:18:36.609Z,7.70
2022-11-18T18:21:12.496Z,7.10
2022-11-18T18:23:43.489Z,8.60
2022-11-18T18:26:12.639Z,7.70
2022-11-18T18:28:41.284Z,7.80
2022-11-18T18:31:12.844Z,8.60
2022-11-18T18:33:45.397Z,7.30
2022-11-18T18:36:16.510Z,8.30
2022-11-18T18:38:46.283Z,9.60
2022-11-18T18:41:22.204Z,9.20
2022-11-18T18:43:51.680Z,8.00
2022-11-18T18:46:35.134Z,7.60
2022-11-18T18:49:11.348Z,9.50
2022-11-18T18:51:43.104Z,9.30
2022-11-18T18:54:14.636Z,7.00
2022-11-18T18:56:44.939Z,7.50
2022-11-18T18:59:15.074Z,7.50
2022-11-18T19:01:44.637Z,8.50
2022-11-18T19:04:18.699Z,6.30
2022-11-18T19:06:58.339Z,6.40
2022-11-18T19:09:46.498Z,10.20
2022-11-18T19:12:39.886Z,6.90
2022-11-18T19:15:12.444Z,5.50
2022-11-18T19:17:41.916Z,7.20
2022-11-18T19:20:37.471Z,7.20
2022-11-18T19:23:12.684Z,8.30
2022-11-18T19:25:46.362Z,8.30
2022-11-18T19:30:50.891Z,7.60
2022-11-18T19:33:26.264Z,7.80
2022-11-18T19:36:07.230Z,7.30
2022-11-18T19:38:41.345Z,7.70
2022-11-18T19:41:17.406Z,7.40
2022-11-18T19:43:47.165Z,7.30
2022-11-18T19:46:16.325Z,7.70
2022-11-18T19:48:48.933Z,8.10
2022-11-18T19:51:19.251Z,6.40
2022-11-18T19:53:57.083Z,7.00
2022-11-18T19:56:29.666Z,7.00
2022-11-18T19:59:00.510Z,7.20
2022-11-18T20:01:30.907Z,7.40
2022-11-18T20:04:06.150Z,8.70
2022-11-18T20:06:43.890Z,8.90
2022-11-18T20:09:14.033Z,12.60
2022-11-18T20:11:44.175Z,15.40
2022-11-18T20:14:14.595Z,14.90
2022-11-18T20:16:44.240Z,16.60
2022-11-18T20:19:14.389Z,11.10
2022-11-18T20:21:44.132Z,10.30
2022-11-18T20:24:18.885Z,9.60
2022-11-18T20:26:49.264Z,8.90
2022-11-18T20:29:21.781Z,12.70
2022-11-18T20:31:51.843Z,14.30
2022-11-18T20:34:27.277Z,14.50
2022-11-18T20:36:57.504Z,14.00
2022-11-18T20:39:26.798Z,15.20
2022-11-18T20:42:14.320Z,13.30
2022-11-18T20:44:45.484Z,11.50
2022-11-18T20:47:16.234Z,14.70
2022-11-18T20:49:46.333Z,14.40
2022-11-18T20:52:15.730Z,10.90
2022-11-18T20:54:46.081Z,13.10
2022-11-18T20:57:15.373Z,14.50
2022-11-18T20:59:44.879Z,13.80
2022-11-18T21:02:13.771Z,8.20
2022-11-18T21:04:42.556Z,9.10
2022-11-18T21:07:11.077Z,10.40
2022-11-18T21:09:46.261Z,7.60
2022-11-18T21:12:19.666Z,8.50
2022-11-18T21:17:24.453Z,13.10
2022-11-18T21:20:32.001Z,11.70
2022-11-18T21:23:02.848Z,9.20
2022-11-18T21:32:01.869Z,9.00
2022-11-18T21:34:30.686Z,7.30
2022-11-18T21:36:59.628Z,6.40
2022-11-18T21:39:28.454Z,6.30
2022-11-18T21:42:01.788Z,5.80
2022-11-18T21:44:36.849Z,6.10
2022-11-18T21:47:06.519Z,5.30
2022-11-18T21:49:41.462Z,4.60
2022-11-18T21:52:16.256Z,4.10
2022-11-18T21:54:48.956Z,3.80
2022-11-18T21:57:19.880Z,3.80
2022-11-18T21:59:48.249Z,3.40
2022-11-18T22:02:16.790Z,3.50
2022-11-18T22:04:57.616Z,3.80
2022-11-18T22:07:30.824Z,3.90
2022-11-18T22:10:05.723Z,3.80
2022-11-18T22:12:38.979Z,3.90
2022-11-18T22:15:18.158Z,3.90
2022-11-18T22:17:51.282Z,3.60
2022-11-18T22:20:26.128Z,4.70
2022-11-18T22:23:01.933Z,4.10
2022-11-18T22:25:40.870Z,4.10
2022-11-18T22:28:14.258Z,4.80
2022-11-18T22:30:48.280Z,4.60
2022-11-18T22:36:09.219Z,3.80
2022-11-18T22:38:46.577Z,4.30
2022-11-18T22:41:45.382Z,6.00
2022-11-18T22:44:33.676Z,6.00
2022-11-18T22:47:06.912Z,9.60
2022-11-18T22:49:42.162Z,17.70
2022-11-18T22:52:10.694Z,12.70
2022-11-18T22:54:45.555Z,15.30
2022-11-18T22:57:20.478Z,11.90
2022-11-18T22:59:55.387Z,9.70
2022-11-18T23:02:49.725Z,10.50
2022-11-18T23:05:31.729Z,8.70
2022-11-18T23:08:06.705Z,12.80
2022-11-18T23:10:39.902Z,8.90
2022-11-18T23:13:33.325Z,7.90
2022-11-18T23:16:08.289Z,12.20
2022-11-18T23:18:44.862Z,9.80
2022-11-18T23:21:19.336Z,11.10
2022-11-18T23:23:54.314Z,9.40
2022-11-18T23:26:32.983Z,8.20
2022-11-18T23:29:08.004Z,10.20
2022-11-18T23:31:45.162Z,11.60
2022-11-18T23:34:18.332Z,13.30
2022-11-18T23:36:54.860Z,16.30
2022-11-18T23:39:33.398Z,18.30
2022-11-18T23:42:06.724Z,11.30
2022-11-18T23:44:49.554Z,13.80
2022-11-18T23:47:22.730Z,8.60
2022-11-18T23:49:57.468Z,12.70
2022-11-18T23:52:45.656Z,18.00
